Time;durP1;ratioP1;P1;durP2;ratioP2;P2;SDS_P1;SDS_P2;PMS_P1;PMS_P2;Temp;Humidity;BMP_temperature;BMP_pressure;BME280_temperature;BME280_humidity;BME280_pressure;Samples;Min_cycle;Max_cycle;Signal;HPM_P1;HPM_P2
2022/06/12 00:01:57;;;;;;;4.60;2.80;;;12.90;99.90;;;;;;5124411;28;20067;-64
2022/06/12 00:04:23;;;;;;;6.22;3.00;;;12.80;99.90;;;;;;5101581;28;20046;-64
2022/06/12 00:06:49;;;;;;;7.68;3.17;;;12.90;99.90;;;;;;5106818;28;20080;-64
2022/06/12 00:09:16;;;;;;;7.82;3.17;;;13.00;99.90;;;;;;5103133;28;20040;-64
2022/06/12 00:11:44;;;;;;;9.63;3.53;;;12.90;99.90;;;;;;5124331;28;20043;-64
2022/06/12 00:14:11;;;;;;;12.23;3.92;;;13.10;99.90;;;;;;5101890;28;20047;-64
2022/06/12 00:16:40;;;;;;;6.93;3.58;;;13.20;99.90;;;;;;5124148;28;20039;-64
2022/06/12 00:19:07;;;;;;;7.30;3.17;;;13.10;99.90;;;;;;5107289;28;20051;-64
2022/06/12 00:21:33;;;;;;;6.68;2.85;;;13.00;99.90;;;;;;5107249;28;20043;-64
2022/06/12 00:24:12;;;;;;;9.48;3.00;;;12.90;99.90;;;;;;5106555;28;20054;-64
2022/06/12 00:26:42;;;;;;;7.75;2.65;;;12.80;99.90;;;;;;5124981;28;20820;-64
2022/06/12 00:29:12;;;;;;;9.90;3.33;;;12.70;99.90;;;;;;5103208;28;20069;-64
2022/06/12 00:31:42;;;;;;;15.93;3.70;;;12.90;99.90;;;;;;5124274;28;20107;-64
2022/06/12 00:34:10;;;;;;;13.77;3.33;;;13.00;99.90;;;;;;5105053;28;20123;-64
2022/06/12 00:36:36;;;;;;;11.77;3.60;;;13.10;99.90;;;;;;5110945;28;20048;-64
2022/06/12 00:39:03;;;;;;;11.45;3.35;;;13.30;99.90;;;;;;5131834;28;20059;-64
2022/06/12 00:41:29;;;;;;;12.50;3.17;;;13.40;99.90;;;;;;5130916;28;20101;-64
2022/06/12 00:43:55;;;;;;;8.77;2.92;;;13.40;99.90;;;;;;5130539;28;20734;-64
2022/06/12 00:46:47;;;;;;;6.95;2.78;;;13.20;99.90;;;;;;5131195;28;20039;-64
2022/06/12 00:49:19;;;;;;;8.15;2.95;;;13.00;99.90;;;;;;5132099;28;20027;-64
2022/06/12 00:51:49;;;;;;;11.05;3.08;;;13.10;99.90;;;;;;5112233;28;20126;-64
2022/06/12 00:54:16;;;;;;;9.50;3.70;;;12.70;99.90;;;;;;5112119;28;20069;-64
2022/06/12 00:56:47;;;;;;;7.65;3.50;;;12.90;99.90;;;;;;5112481;28;20185;-64
2022/06/12 00:59:36;;;;;;;6.97;2.80;;;12.70;99.90;;;;;;5131101;28;20597;-64
2022/06/12 01:02:04;;;;;;;9.20;2.92;;;12.60;99.90;;;;;;5113588;28;20066;-64
2022/06/12 01:07:19;;;;;;;12.05;3.55;;;12.70;99.90;;;;;;5097684;28;20050;-64
2022/06/12 01:09:47;;;;;;;8.23;3.65;;;12.70;99.90;;;;;;5111878;28;20048;-64
2022/06/12 01:12:19;;;;;;;11.63;3.97;;;12.70;99.90;;;;;;5113718;28;20078;-64
2022/06/12 01:14:48;;;;;;;11.98;4.05;;;12.50;99.90;;;;;;5126612;28;20044;-64
2022/06/12 01:17:14;;;;;;;;;;;12.60;99.90;;;;;;5113572;28;20061;-64
2022/06/12 01:19:50;;;;;;;11.35;3.72;;;12.60;99.90;;;;;;5113363;28;19998;-64
2022/06/12 01:22:37;;;;;;;11.30;3.67;;;12.70;99.90;;;;;;5113072;28;20126;-64
2022/06/12 01:25:29;;;;;;;12.05;3.65;;;12.80;99.90;;;;;;5095170;28;20071;-64
2022/06/12 01:28:19;;;;;;;7.13;3.35;;;12.80;99.90;;;;;;5120211;28;20052;-64
2022/06/12 01:31:19;;;;;;;9.68;3.78;;;12.80;99.90;;;;;;5111913;28;20489;-64
2022/06/12 01:34:06;;;;;;;11.15;4.15;;;12.60;99.90;;;;;;5095019;28;20055;-64
2022/06/12 01:36:45;;;;;;;7.43;3.13;;;12.40;99.90;;;;;;5111398;28;20043;-64
2022/06/12 01:39:22;;;;;;;9.77;4.43;;;12.20;99.90;;;;;;5129926;28;20036;-64
2022/06/12 01:41:55;;;;;;;12.13;3.60;;;12.20;99.90;;;;;;5112537;28;20090;-64
2022/06/12 01:44:51;;;;;;;7.65;3.08;;;12.20;99.90;;;;;;5113139;28;20048;-64
2022/06/12 01:47:22;;;;;;;11.98;4.07;;;12.30;99.90;;;;;;5126003;28;20039;-64
2022/06/12 01:50:00;;;;;;;7.78;3.25;;;12.30;99.90;;;;;;5127359;28;20043;-64
2022/06/12 01:52:31;;;;;;;10.20;4.18;;;12.40;99.90;;;;;;5107705;28;20059;-64
2022/06/12 01:55:16;;;;;;;10.70;4.13;;;12.30;99.90;;;;;;5126609;28;20047;-64
2022/06/12 01:58:00;;;;;;;12.95;4.45;;;12.60;99.90;;;;;;5108536;28;20040;-64
2022/06/12 02:00:27;;;;;;;10.82;3.47;;;12.60;99.90;;;;;;5107545;28;20119;-64
2022/06/12 02:03:12;;;;;;;10.65;3.42;;;12.70;99.90;;;;;;5108341;28;20051;-64
2022/06/12 02:05:57;;;;;;;12.88;4.43;;;13.00;99.90;;;;;;5127059;27;20039;-64
2022/06/12 02:08:43;;;;;;;12.23;4.35;;;13.00;99.90;;;;;;5126035;28;20036;-64
2022/06/12 02:14:03;;;;;;;7.47;3.35;;;12.90;99.90;;;;;;5109401;28;20052;-64
2022/06/12 02:16:33;;;;;;;10.68;3.70;;;12.80;99.90;;;;;;5128212;27;20108;-64
2022/06/12 02:19:01;;;;;;;;;;;12.70;99.90;;;;;;5107142;28;20050;-64
2022/06/12 02:21:37;;;;;;;9.13;3.35;;;12.70;99.90;;;;;;5107803;28;19955;-64
2022/06/12 02:24:13;;;;;;;8.25;3.33;;;12.80;99.90;;;;;;5125739;28;20493;-64
2022/06/12 02:26:58;;;;;;;7.43;3.53;;;12.90;99.90;;;;;;5105219;28;20090;-64
2022/06/12 02:29:36;;;;;;;7.32;3.20;;;12.90;99.90;;;;;;5106669;28;20056;-64
2022/06/12 02:32:08;;;;;;;8.55;3.53;;;13.00;99.90;;;;;;5108156;28;20055;-65
2022/06/12 02:34:40;;;;;;;8.30;3.28;;;12.80;99.90;;;;;;5104769;28;20063;-64
2022/06/12 02:37:17;;;;;;;8.82;3.80;;;12.60;99.90;;;;;;5108855;28;20040;-64
2022/06/12 02:39:48;;;;;;;6.70;3.05;;;12.50;99.90;;;;;;5107047;28;20126;-64
2022/06/12 02:42:42;;;;;;;8.95;3.25;;;12.30;99.90;;;;;;5106939;28;20043;-64
2022/06/12 02:45:28;;;;;;;10.30;3.92;;;12.40;99.90;;;;;;5108766;28;20039;-64
2022/06/12 02:47:54;;;;;;;9.80;3.45;;;12.50;99.90;;;;;;5105825;28;20099;-64
2022/06/12 02:50:24;;;;;;;11.30;3.67;;;12.60;99.90;;;;;;5125673;27;20067;-64
2022/06/12 02:53:00;;;;;;;5.45;2.95;;;12.70;99.90;;;;;;5125549;28;20449;-64
2022/06/12 02:55:45;;;;;;;7.70;3.13;;;12.70;99.90;;;;;;5108254;28;20048;-64
2022/06/12 02:58:19;;;;;;;5.45;2.78;;;12.80;99.90;;;;;;5125846;28;20050;-64
2022/06/12 03:00:50;;;;;;;8.82;3.42;;;12.90;99.90;;;;;;5125349;28;20038;-64
2022/06/12 03:03:35;;;;;;;10.27;3.28;;;12.90;99.90;;;;;;5123738;28;20054;-64
2022/06/12 03:06:02;;;;;;;7.30;3.28;;;13.00;99.90;;;;;;5123217;28;20038;-64
2022/06/12 03:08:42;;;;;;;10.15;3.42;;;13.00;99.90;;;;;;5107111;28;20050;-64
2022/06/12 03:11:26;;;;;;;8.63;3.80;;;13.00;99.90;;;;;;5125419;28;20036;-64
2022/06/12 03:13:54;;;;;;;8.18;3.55;;;12.90;99.90;;;;;;5120563;28;20044;-64
2022/06/12 03:16:30;;;;;;;8.23;3.50;;;12.90;99.90;;;;;;5106398;27;20519;-64
2022/06/12 03:19:05;;;;;;;10.60;3.92;;;12.90;99.90;;;;;;5107128;28;20039;-64
2022/06/12 03:21:48;;;;;;;11.70;3.85;;;13.00;99.90;;;;;;5122979;28;20035;-64
2022/06/12 03:24:32;;;;;;;7.47;3.45;;;13.00;99.90;;;;;;5107189;28;20051;-64
2022/06/12 03:27:35;;;;;;;9.15;3.85;;;13.00;99.90;;;;;;5105972;28;20050;-64
2022/06/12 03:30:04;;;;;;;11.00;3.85;;;13.00;99.90;;;;;;5105948;28;20043;-64
2022/06/12 03:32:48;;;;;;;8.95;3.72;;;13.10;99.90;;;;;;5106305;28;20048;-65
2022/06/12 03:35:57;;;;;;;10.65;3.70;;;13.00;99.90;;;;;;5107766;28;20043;-64
2022/06/12 03:38:52;;;;;;;10.25;3.40;;;13.00;99.90;;;;;;5107293;28;20071;-64
2022/06/12 03:41:35;;;;;;;7.18;3.28;;;13.00;99.90;;;;;;5106956;28;20042;-64
2022/06/12 03:44:29;;;;;;;13.88;4.10;;;13.10;99.90;;;;;;5125835;28;20497;-64
2022/06/12 03:47:05;;;;;;;11.38;4.10;;;13.10;99.90;;;;;;5124156;28;20047;-64
2022/06/12 03:49:49;;;;;;;9.30;3.35;;;13.10;99.90;;;;;;5107452;28;20087;-64
2022/06/12 03:52:26;;;;;;;11.27;3.90;;;13.00;99.90;;;;;;5106172;28;20099;-64
2022/06/12 03:55:06;;;;;;;8.20;3.20;;;13.00;99.90;;;;;;5122719;28;20039;-64
2022/06/12 03:57:53;;;;;;;10.27;3.50;;;13.00;99.90;;;;;;5104362;28;20040;-64
2022/06/12 04:00:50;;;;;;;9.55;3.67;;;13.10;99.90;;;;;;5107325;28;20047;-64
2022/06/12 04:03:33;;;;;;;15.18;4.07;;;13.00;99.90;;;;;;5091552;28;20057;-64
2022/06/12 04:06:02;;;;;;;10.18;3.33;;;13.10;99.90;;;;;;5124949;28;20043;-64
2022/06/12 04:08:33;;;;;;;11.43;3.40;;;13.20;99.90;;;;;;5105608;28;20047;-64
2022/06/12 04:11:00;;;;;;;10.40;4.03;;;13.00;99.90;;;;;;5123860;28;20069;-64
2022/06/12 04:13:26;;;;;;;11.75;3.45;;;13.00;99.90;;;;;;5105949;28;20047;-64
2022/06/12 04:15:56;;;;;;;8.77;3.88;;;13.10;99.90;;;;;;5124193;28;20449;-64
2022/06/12 04:18:25;;;;;;;10.55;3.80;;;13.10;99.90;;;;;;5105831;28;20043;-64
2022/06/12 04:21:04;;;;;;;9.75;3.80;;;13.20;99.90;;;;;;5124453;28;20491;-64
2022/06/12 04:23:50;;;;;;;8.38;4.15;;;13.10;99.90;;;;;;5124780;28;20399;-64
2022/06/12 04:26:27;;;;;;;10.75;4.38;;;13.10;99.90;;;;;;5106063;28;20503;-64
2022/06/12 04:29:10;;;;;;;11.57;4.45;;;13.10;99.90;;;;;;5105868;28;20035;-64
2022/06/12 04:31:37;;;;;;;8.98;4.15;;;13.10;99.90;;;;;;5123115;28;20082;-64
2022/06/12 04:34:09;;;;;;;8.32;4.25;;;13.00;99.90;;;;;;5105242;28;20058;-64
2022/06/12 04:36:36;;;;;;;11.40;3.60;;;13.10;99.90;;;;;;5123660;28;20058;-64
2022/06/12 04:39:03;;;;;;;8.85;4.10;;;13.20;99.90;;;;;;5105133;28;20040;-64
2022/06/12 04:41:32;;;;;;;11.85;3.83;;;13.10;99.90;;;;;;5089683;28;20040;-64
2022/06/12 04:43:58;;;;;;;11.40;4.05;;;13.10;99.90;;;;;;5106908;28;20032;-64
2022/06/12 04:46:24;;;;;;;13.27;4.90;;;13.10;99.90;;;;;;5103431;28;20043;-64
2022/06/12 04:48:53;;;;;;;12.82;3.83;;;13.20;99.90;;;;;;5105860;28;20075;-64
2022/06/12 04:51:19;;;;;;;12.67;4.10;;;13.20;99.90;;;;;;5124164;28;20055;-64
2022/06/12 04:53:46;;;;;;;13.15;3.88;;;13.20;99.90;;;;;;5105448;28;20132;-64
2022/06/12 04:56:15;;;;;;;12.50;4.40;;;13.40;99.90;;;;;;5105357;28;20074;-64
2022/06/12 04:58:41;;;;;;;12.05;4.30;;;13.30;99.90;;;;;;5106110;28;20071;-64
2022/06/12 05:01:08;;;;;;;10.57;3.60;;;13.40;99.90;;;;;;5105414;28;20054;-64
2022/06/12 05:03:33;;;;;;;8.15;3.90;;;13.40;99.90;;;;;;5123831;28;20525;-64
2022/06/12 05:05:59;;;;;;;12.15;4.55;;;13.50;99.90;;;;;;5105293;28;20044;-64
2022/06/12 05:08:25;;;;;;;12.45;4.07;;;13.50;99.90;;;;;;5105353;28;20055;-64
2022/06/12 05:10:52;;;;;;;7.88;4.03;;;13.60;99.90;;;;;;5106684;28;20050;-64
2022/06/12 05:13:18;;;;;;;12.32;3.88;;;13.60;99.90;;;;;;5124460;28;20063;-64
2022/06/12 05:15:45;;;;;;;9.57;4.70;;;13.70;99.90;;;;;;5124535;28;20031;-64
2022/06/12 05:18:14;;;;;;;11.35;3.75;;;13.70;99.90;;;;;;5126079;28;20047;-64
2022/06/12 05:20:41;;;;;;;9.20;3.75;;;13.80;99.90;;;;;;5124216;28;20043;-64
2022/06/12 05:23:08;;;;;;;12.30;3.67;;;13.60;99.90;;;;;;5126465;28;20054;-64
2022/06/12 05:25:35;;;;;;;16.42;4.65;;;13.90;99.90;;;;;;5128252;28;20069;-64
2022/06/12 05:28:03;;;;;;;13.75;4.13;;;13.90;99.90;;;;;;5108052;28;20044;-64
2022/06/12 05:30:31;;;;;;;10.52;3.92;;;13.90;99.90;;;;;;5128503;28;20051;-64
2022/06/12 05:32:59;;;;;;;12.63;4.53;;;13.90;99.90;;;;;;5109460;28;20475;-64
2022/06/12 05:35:26;;;;;;;12.05;3.85;;;14.00;99.90;;;;;;5107010;28;20068;-64
2022/06/12 05:37:52;;;;;;;12.88;4.25;;;14.00;99.90;;;;;;5109810;28;20043;-64
2022/06/12 05:40:24;;;;;;;11.82;4.28;;;14.10;99.90;;;;;;5128606;28;20051;-64
2022/06/12 05:42:50;;;;;;;14.00;4.28;;;14.30;99.90;;;;;;5109714;28;20098;-64
2022/06/12 05:45:20;;;;;;;14.05;4.82;;;14.20;99.90;;;;;;5103238;28;20039;-64
2022/06/12 05:47:49;;;;;;;13.00;4.25;;;14.40;99.90;;;;;;5108480;28;20043;-64
2022/06/12 05:50:17;;;;;;;13.57;4.30;;;14.30;99.90;;;;;;5106933;28;20126;-64
2022/06/12 05:52:42;;;;;;;16.73;4.50;;;14.50;99.90;;;;;;5109811;28;20035;-64
2022/06/12 05:55:09;;;;;;;14.35;4.43;;;14.60;99.90;;;;;;5107648;28;20043;-64
2022/06/12 05:57:34;;;;;;;14.73;4.07;;;14.50;99.90;;;;;;5124998;28;20203;-64
2022/06/12 06:00:00;;;;;;;11.88;4.35;;;14.60;99.90;;;;;;5090800;28;20472;-64
2022/06/12 06:02:26;;;;;;;14.43;4.55;;;14.70;99.90;;;;;;5110249;28;20048;-64
2022/06/12 06:04:52;;;;;;;13.60;4.32;;;14.70;99.90;;;;;;5127871;28;20062;-64
2022/06/12 06:07:19;;;;;;;13.02;4.70;;;14.80;99.90;;;;;;5109358;28;20106;-64
2022/06/12 06:09:44;;;;;;;11.50;4.70;;;14.80;99.90;;;;;;5106075;28;20055;-64
2022/06/12 06:12:10;;;;;;;13.57;4.80;;;14.90;99.90;;;;;;5109083;28;20044;-64
2022/06/12 06:14:36;;;;;;;18.00;5.13;;;15.00;99.90;;;;;;5109840;28;20112;-64
2022/06/12 06:17:02;;;;;;;12.68;4.25;;;15.10;99.90;;;;;;5129165;27;20035;-64
2022/06/12 06:19:27;;;;;;;12.10;4.57;;;15.30;99.90;;;;;;5127574;28;20035;-64
2022/06/12 06:21:53;;;;;;;15.38;5.25;;;15.40;99.90;;;;;;5109515;28;20540;-64
2022/06/12 06:24:18;;;;;;;18.10;4.80;;;15.40;99.90;;;;;;5109622;28;20077;-64
2022/06/12 06:26:45;;;;;;;17.20;5.57;;;15.40;99.90;;;;;;5126919;28;20039;-64
2022/06/12 06:29:11;;;;;;;20.92;5.40;;;15.50;99.90;;;;;;5108064;28;20063;-64
2022/06/12 06:31:37;;;;;;;17.48;5.30;;;15.50;99.90;;;;;;5127373;28;20048;-64
2022/06/12 06:34:04;;;;;;;14.38;5.47;;;15.50;99.90;;;;;;5127238;28;20435;-64
2022/06/12 06:36:30;;;;;;;17.88;5.50;;;15.60;99.90;;;;;;5108946;28;20079;-64
2022/06/12 06:38:57;;;;;;;16.98;4.97;;;15.70;99.90;;;;;;5109278;28;20069;-64
2022/06/12 06:41:24;;;;;;;17.35;5.82;;;15.80;99.90;;;;;;5089841;28;20039;-64
2022/06/12 06:46:35;;;;;;;14.52;5.32;;;15.80;99.90;;;;;;5107492;28;20061;-64
2022/06/12 06:49:03;;;;;;;13.52;4.78;;;15.90;99.90;;;;;;5107548;28;20067;-64
2022/06/12 06:51:30;;;;;;;18.83;4.97;;;15.80;99.90;;;;;;5106815;28;20047;-64
2022/06/12 06:53:56;;;;;;;20.48;5.50;;;15.90;99.90;;;;;;5125490;28;20095;-64
2022/06/12 06:56:23;;;;;;;21.50;5.90;;;15.90;99.90;;;;;;5107505;28;20035;-64
2022/06/12 06:58:48;;;;;;;16.60;4.88;;;15.90;99.90;;;;;;5100622;28;20069;-64
2022/06/12 07:01:14;;;;;;;18.67;5.70;;;15.90;99.90;;;;;;5107509;28;20031;-64
2022/06/12 07:03:40;;;;;;;20.48;5.55;;;15.90;99.90;;;;;;5125862;28;20044;-64
2022/06/12 07:06:06;;;;;;;18.15;5.28;;;16.00;99.90;;;;;;5107348;28;20051;-64
2022/06/12 07:08:31;;;;;;;16.10;5.00;;;16.00;99.90;;;;;;5107061;28;20131;-64
2022/06/12 07:10:57;;;;;;;16.60;5.25;;;16.10;99.90;;;;;;5100218;28;20051;-64
2022/06/12 07:13:24;;;;;;;23.58;6.15;;;16.20;99.90;;;;;;5126014;28;20096;-64
2022/06/12 07:15:50;;;;;;;20.38;6.00;;;16.30;99.90;;;;;;5107728;28;20103;-67
2022/06/12 07:18:18;;;;;;;15.80;5.32;;;16.30;99.90;;;;;;5121683;28;20043;-67
2022/06/12 07:20:54;;;;;;;18.33;5.28;;;16.30;99.90;;;;;;5106951;28;20052;-68
2022/06/12 07:23:22;;;;;;;21.10;5.97;;;16.40;99.90;;;;;;5126667;28;20114;-64
2022/06/12 07:25:57;;;;;;;18.98;5.65;;;16.50;99.90;;;;;;5102361;28;20036;-64
2022/06/12 07:28:24;;;;;;;21.77;5.25;;;16.60;99.90;;;;;;5089849;28;20054;-63
2022/06/12 07:30:51;;;;;;;19.40;5.80;;;16.60;99.90;;;;;;5105574;28;20039;-63
2022/06/12 07:33:18;;;;;;;15.65;5.65;;;16.60;99.90;;;;;;5106197;28;20048;-63
2022/06/12 07:35:46;;;;;;;15.85;5.18;;;16.70;99.90;;;;;;5123096;28;20040;-64
2022/06/12 07:38:14;;;;;;;22.35;6.15;;;16.80;99.90;;;;;;5124258;28;20043;-63
2022/06/12 07:40:45;;;;;;;15.25;5.07;;;16.70;99.90;;;;;;5124211;28;20040;-64
2022/06/12 07:43:11;;;;;;;17.08;5.80;;;16.90;99.90;;;;;;5116771;28;20036;-63
2022/06/12 07:45:38;;;;;;;17.33;6.50;;;16.80;99.90;;;;;;5110927;28;20043;-62
2022/06/12 07:48:04;;;;;;;23.00;5.68;;;16.80;99.90;;;;;;5118802;28;20039;-63
2022/06/12 07:50:30;;;;;;;16.15;5.13;;;17.00;99.90;;;;;;5097715;28;20164;-64
2022/06/12 07:52:58;;;;;;;16.05;5.20;;;16.90;99.90;;;;;;5105886;28;20503;-64
2022/06/12 07:55:24;;;;;;;18.20;6.25;;;17.00;99.90;;;;;;5106016;28;20103;-64
2022/06/12 07:57:50;;;;;;;24.88;7.18;;;17.10;99.90;;;;;;5092747;28;20044;-65
2022/06/12 08:00:16;;;;;;;21.80;6.20;;;17.20;99.90;;;;;;5117519;28;20035;-64
2022/06/12 08:02:43;;;;;;;18.90;5.35;;;17.20;99.90;;;;;;5125949;28;20446;-64
2022/06/12 08:05:09;;;;;;;18.92;5.53;;;17.20;99.90;;;;;;5105900;28;20043;-66
2022/06/12 08:07:35;;;;;;;17.35;5.03;;;17.30;99.90;;;;;;5098267;28;20048;-65
2022/06/12 08:10:03;;;;;;;20.20;5.70;;;17.30;99.90;;;;;;5105927;28;20047;-65
2022/06/12 08:12:37;;;;;;;15.52;5.93;;;17.40;99.90;;;;;;5123237;28;20036;-65
2022/06/12 08:15:05;;;;;;;17.20;6.40;;;17.40;99.90;;;;;;5105334;28;20048;-65
2022/06/12 08:17:31;;;;;;;21.33;6.40;;;17.50;99.90;;;;;;5121125;28;20047;-65
2022/06/12 08:22:41;;;;;;;20.42;5.65;;;17.70;99.90;;;;;;5108399;28;20127;-64
2022/06/12 08:25:07;;;;;;;18.52;6.60;;;17.70;99.90;;;;;;5075773;28;20052;-65
2022/06/12 08:27:33;;;;;;;15.93;5.18;;;17.70;99.90;;;;;;5106441;28;20126;-65
2022/06/12 08:29:58;;;;;;;19.13;5.47;;;17.80;99.90;;;;;;5124873;28;20110;-64
2022/06/12 08:32:24;;;;;;;17.13;5.30;;;17.90;99.90;;;;;;5125339;28;20069;-65
2022/06/12 08:34:54;;;;;;;18.02;5.45;;;18.00;99.90;;;;;;5124528;28;20479;-64
2022/06/12 08:37:24;;;;;;;20.13;5.28;;;18.00;99.90;;;;;;5123541;28;20036;-64
2022/06/12 08:39:50;;;;;;;19.10;4.95;;;18.10;99.90;;;;;;5105470;28;20043;-65
2022/06/12 08:42:24;;;;;;;17.00;5.15;;;18.10;99.90;;;;;;5124942;28;20043;-65
2022/06/12 08:45:07;;;;;;;15.40;4.70;;;18.20;99.90;;;;;;5114119;28;20051;-65
2022/06/12 08:48:27;;;;;;;16.67;4.70;;;18.20;99.90;;;;;;5123338;28;20051;-65
2022/06/12 08:51:02;;;;;;;;;;;18.30;99.90;;;;;;5123511;28;20099;-68
2022/06/12 08:53:50;;;;;;;17.55;4.90;;;18.50;99.90;;;;;;5106711;28;19920;-68
2022/06/12 08:56:47;;;;;;;12.57;4.15;;;18.60;99.90;;;;;;5105415;28;20039;-68
2022/06/12 08:59:42;;;;;;;12.80;3.88;;;18.70;99.90;;;;;;5123698;27;1261339;-65
2022/06/12 09:02:26;;;;;;;14.27;3.78;;;18.90;99.90;;;;;;5158252;27;20062;-66
2022/06/12 09:04:53;;;;;;;13.90;4.43;;;19.10;99.90;;;;;;5153374;27;20046;-66
2022/06/12 09:07:25;;;;;;;13.98;4.75;;;19.10;99.90;;;;;;5140294;27;20103;-66
2022/06/12 09:09:55;;;;;;;16.20;4.13;;;19.00;99.90;;;;;;5151342;27;20079;-66
2022/06/12 09:12:47;;;;;;;16.55;3.80;;;18.90;99.90;;;;;;5138594;27;20054;-67
2022/06/12 09:15:34;;;;;;;15.02;4.38;;;19.00;99.90;;;;;;5137863;27;20050;-65
2022/06/12 09:18:27;;;;;;;19.00;5.75;;;19.10;99.90;;;;;;5127383;28;20055;-65
2022/06/12 09:21:09;;;;;;;16.90;5.03;;;19.20;99.90;;;;;;5138205;27;20495;-66
2022/06/12 09:23:54;;;;;;;11.63;3.95;;;19.50;99.90;;;;;;5082048;28;20046;-66
2022/06/12 09:26:47;;;;;;;16.40;6.05;;;19.80;99.90;;;;;;5054529;28;20120;-66
2022/06/12 09:29:31;;;;;;;17.80;5.38;;;20.00;99.90;;;;;;5012486;28;20057;-67
2022/06/12 09:32:09;;;;;;;15.68;4.63;;;20.00;99.90;;;;;;5049959;28;20520;-67
2022/06/12 09:34:42;;;;;;;13.15;4.70;;;20.00;99.90;;;;;;5075869;28;20033;-67
2022/06/12 09:40:34;;;;;;;15.63;5.50;;;19.80;99.90;;;;;;5053980;28;20664;-67
2022/06/12 09:43:03;;;;;;;16.50;5.68;;;19.60;99.90;;;;;;5044054;28;20072;-67
2022/06/12 09:45:51;;;;;;;13.48;4.75;;;19.50;99.90;;;;;;5071889;28;20036;-67
2022/06/12 09:48:42;;;;;;;14.18;4.15;;;19.60;99.90;;;;;;5044317;28;20053;-67
2022/06/12 09:51:23;;;;;;;10.35;3.80;;;19.60;99.90;;;;;;5077962;28;20044;-68
2022/06/12 09:54:26;;;;;;;13.43;3.78;;;19.70;99.90;;;;;;5044465;28;20075;-67
2022/06/12 09:57:17;;;;;;;9.73;3.85;;;19.90;99.90;;;;;;5054818;28;20112;-66
2022/06/12 09:59:53;;;;;;;12.90;4.88;;;19.80;99.90;;;;;;5062068;28;20403;-65
2022/06/12 10:02:28;;;;;;;12.30;4.15;;;20.10;99.90;;;;;;5093263;28;20051;-66
2022/06/12 10:05:01;;;;;;;15.50;4.13;;;20.10;99.90;;;;;;5077376;28;20296;-65
2022/06/12 10:07:43;;;;;;;11.38;4.15;;;19.90;99.90;;;;;;5063797;28;20052;-66
2022/06/12 10:10:39;;;;;;;12.18;3.90;;;19.70;99.90;;;;;;5080448;28;20280;-65
2022/06/12 10:13:08;;;;;;;11.95;4.38;;;19.60;99.90;;;;;;5069651;28;20116;-66
2022/06/12 10:15:41;;;;;;;14.00;5.53;;;19.50;99.90;;;;;;5063288;28;20090;-65
2022/06/12 10:18:20;;;;;;;10.20;4.70;;;19.50;99.90;;;;;;5051001;28;20047;-66
2022/06/12 10:20:51;;;;;;;10.40;4.07;;;19.40;99.90;;;;;;5055789;28;20052;-65
2022/06/12 10:23:17;;;;;;;8.65;3.70;;;19.30;99.90;;;;;;5050468;28;20082;-66
2022/06/12 10:25:54;;;;;;;11.35;3.90;;;19.40;99.90;;;;;;5041586;28;20101;-66
2022/06/12 10:28:30;;;;;;;7.95;3.20;;;19.80;99.90;;;;;;5046766;28;20063;-66
2022/06/12 10:30:59;;;;;;;9.45;3.28;;;19.90;99.90;;;;;;5062157;28;20033;-66
2022/06/12 10:33:30;;;;;;;7.95;3.35;;;19.80;99.90;;;;;;5042052;28;20083;-66
2022/06/12 10:36:01;;;;;;;8.63;3.40;;;19.90;99.90;;;;;;5024744;28;20195;-66
2022/06/12 10:38:36;;;;;;;9.73;3.20;;;20.00;99.90;;;;;;5027788;28;20045;-65
2022/06/12 10:41:05;;;;;;;10.23;3.50;;;20.20;99.90;;;;;;5058760;28;20033;-66
2022/06/12 10:43:43;;;;;;;10.60;3.23;;;20.40;99.90;;;;;;5032094;28;20137;-66
2022/06/12 10:46:17;;;;;;;10.88;3.30;;;20.60;99.90;;;;;;5042280;28;20040;-66
2022/06/12 10:48:55;;;;;;;8.50;2.97;;;20.70;99.90;;;;;;5031606;28;20060;-65
2022/06/12 10:51:35;;;;;;;8.57;3.00;;;20.70;99.90;;;;;;5053823;28;20055;-66
2022/06/12 10:54:13;;;;;;;7.85;3.83;;;20.70;99.90;;;;;;5028773;28;20045;-65
2022/06/12 10:56:51;;;;;;;8.25;2.78;;;20.80;99.90;;;;;;5057200;28;20392;-66
2022/06/12 10:59:29;;;;;;;8.60;3.08;;;21.00;99.90;;;;;;5029074;28;20084;-66
2022/06/12 11:02:06;;;;;;;7.13;2.83;;;21.10;99.90;;;;;;5042361;28;20053;-66
2022/06/12 11:05:00;;;;;;;9.48;3.47;;;21.10;99.90;;;;;;5036251;28;20080;-65
2022/06/12 11:07:32;;;;;;;7.82;2.63;;;21.00;99.90;;;;;;5012152;28;20050;-67
2022/06/12 11:10:24;;;;;;;10.23;2.53;;;21.00;99.90;;;;;;5053895;28;20517;-66
2022/06/12 11:13:09;;;;;;;6.05;2.70;;;21.00;99.90;;;;;;5032381;28;20049;-66
2022/06/12 11:16:05;;;;;;;6.38;2.83;;;21.10;99.90;;;;;;5032025;28;20056;-66
2022/06/12 11:18:43;;;;;;;7.95;2.95;;;21.10;99.90;;;;;;5021076;28;20048;-66
2022/06/12 11:21:35;;;;;;;8.95;2.92;;;21.10;99.90;;;;;;5049905;28;20036;-67
2022/06/12 11:24:11;;;;;;;8.85;3.13;;;21.20;99.90;;;;;;5044079;28;20040;-66
2022/06/12 11:26:59;;;;;;;7.22;3.42;;;21.10;99.90;;;;;;5037073;28;20045;-66
2022/06/12 11:29:33;;;;;;;5.88;2.90;;;21.20;99.90;;;;;;5040681;28;20075;-67
2022/06/12 11:32:19;;;;;;;9.07;2.78;;;20.90;99.90;;;;;;5053911;28;20108;-66
2022/06/12 11:35:04;;;;;;;4.57;2.67;;;20.70;99.90;;;;;;5041974;28;20171;-66
2022/06/12 11:37:53;;;;;;;8.40;3.13;;;20.90;99.90;;;;;;5039919;28;20045;-67
2022/06/12 11:40:38;;;;;;;5.97;2.83;;;21.00;99.90;;;;;;5034063;28;20087;-66
2022/06/12 11:43:37;;;;;;;7.57;3.10;;;21.10;99.90;;;;;;5052179;28;20053;-67
2022/06/12 11:46:18;;;;;;;9.77;3.08;;;21.20;99.90;;;;;;5047015;28;20041;-66
2022/06/12 11:48:53;;;;;;;5.90;2.63;;;21.40;99.90;;;;;;5039080;28;20044;-66
2022/06/12 11:51:51;;;;;;;6.65;2.60;;;21.40;99.90;;;;;;5044254;28;20245;-67
2022/06/12 11:54:34;;;;;;;7.47;3.00;;;21.40;99.90;;;;;;5057478;28;20048;-66
2022/06/12 11:57:10;;;;;;;4.40;2.88;;;21.30;99.90;;;;;;5068510;28;20041;-66
2022/06/12 12:00:07;;;;;;;7.22;3.10;;;21.50;99.90;;;;;;5026009;28;20083;-66
2022/06/12 12:03:10;;;;;;;4.18;2.38;;;21.70;99.90;;;;;;5027311;28;20057;-71
2022/06/12 12:05:50;;;;;;;5.25;2.80;;;21.60;99.90;;;;;;5038746;28;20418;-67
2022/06/12 12:08:37;;;;;;;6.88;3.75;;;21.40;99.90;;;;;;5020361;28;20648;-67
2022/06/12 12:11:18;;;;;;;6.03;2.70;;;21.60;99.90;;;;;;5030249;28;20037;-66
2022/06/12 12:13:50;;;;;;;5.78;2.50;;;21.30;99.90;;;;;;5014481;28;20075;-66
2022/06/12 12:16:40;;;;;;;8.05;2.72;;;21.30;99.90;;;;;;5029471;28;20050;-68
2022/06/12 12:19:26;;;;;;;5.47;3.22;;;21.20;99.90;;;;;;5020311;28;20063;-66
2022/06/12 12:22:04;;;;;;;5.85;2.92;;;21.40;99.90;;;;;;5031731;28;20059;-66
2022/06/12 12:24:45;;;;;;;6.72;2.95;;;21.50;99.90;;;;;;5019071;28;20052;-66
2022/06/12 12:27:24;;;;;;;6.55;2.88;;;21.40;99.90;;;;;;5028934;28;20048;-66
2022/06/12 12:29:52;;;;;;;7.32;2.50;;;21.60;99.90;;;;;;5035479;28;20178;-66
2022/06/12 12:32:18;;;;;;;5.82;3.22;;;21.50;99.90;;;;;;5045538;28;20064;-67
2022/06/12 12:34:45;;;;;;;7.10;2.90;;;21.60;99.90;;;;;;5040828;28;20052;-67
2022/06/12 12:43:06;;;;;;;6.38;2.70;;;21.40;99.90;;;;;;4990342;28;20045;-66
2022/06/12 12:45:38;;;;;;;7.18;3.20;;;20.70;99.90;;;;;;5007577;28;20088;-66
2022/06/12 12:48:10;;;;;;;7.85;3.30;;;20.60;99.90;;;;;;5009512;28;20063;-67
2022/06/12 12:50:42;;;;;;;8.25;2.88;;;20.50;99.90;;;;;;5020033;28;20080;-66
2022/06/12 12:53:18;;;;;;;7.25;3.00;;;20.70;99.90;;;;;;4990629;28;20049;-66
2022/06/12 12:55:43;;;;;;;8.75;2.97;;;21.00;99.90;;;;;;5031288;28;20132;-66
2022/06/12 12:58:17;;;;;;;8.50;3.10;;;21.10;99.90;;;;;;4999120;28;20065;-64
2022/06/12 13:00:44;;;;;;;9.52;3.10;;;21.00;99.90;;;;;;5019954;28;20204;-66
2022/06/12 13:03:26;;;;;;;8.73;3.65;;;20.80;99.90;;;;;;5011530;28;20069;-67
2022/06/12 13:06:09;;;;;;;5.28;2.88;;;20.60;99.90;;;;;;4988561;28;20072;-67
2022/06/12 13:08:59;;;;;;;8.45;3.33;;;20.70;99.90;;;;;;4986173;28;20049;-67
2022/06/12 13:11:43;;;;;;;7.97;3.80;;;20.60;99.90;;;;;;4987073;28;20518;-68
2022/06/12 13:14:30;;;;;;;8.40;3.10;;;20.80;99.90;;;;;;4985966;28;20263;-68
2022/06/12 13:17:11;;;;;;;9.82;2.83;;;21.20;99.90;;;;;;4980523;28;20050;-68
2022/06/12 13:19:55;;;;;;;9.73;3.47;;;21.70;99.90;;;;;;5029840;28;20103;-68
2022/06/12 13:22:25;;;;;;;10.10;3.40;;;22.00;99.90;;;;;;5046846;28;20041;-68
2022/06/12 13:25:11;;;;;;;11.98;3.58;;;22.10;99.90;;;;;;5034928;28;20049;-67
2022/06/12 13:27:56;;;;;;;9.52;4.13;;;21.50;99.90;;;;;;5054220;28;20079;-68
2022/06/12 13:30:28;;;;;;;11.73;3.90;;;21.00;99.90;;;;;;5046869;28;20041;-67
2022/06/12 13:33:09;;;;;;;9.75;3.85;;;20.80;99.90;;;;;;5048708;28;20049;-68
2022/06/12 13:35:45;;;;;;;7.15;3.28;;;20.90;99.90;;;;;;5054006;28;20037;-67
2022/06/12 13:38:25;;;;;;;9.10;3.72;;;21.40;99.90;;;;;;5042741;28;20045;-67
2022/06/12 13:41:34;;;;;;;10.40;3.47;;;21.70;99.90;;;;;;5051585;28;20076;-66